Latest Weather Observations for Cape Bruny AWS

IDT60901

Issued at 5:41 pm EST Wednesday 23 September 2020 (issued every 10 minutes, with the page automatically refreshed every 10 minutes)

About weather observations | Map of Hobart area stations | Latest observations for Hobart area | Other Formats
Station Details ID: 094198 Name: CAPE BRUNY (CAPE BRUNY) Lat: -43.49 Lon: 147.14 Height: 59.7 m
Data from the previous 72 hours. | See also: Recent months at Cape Bruny AWS
Date/Time
EST
Temp
°C
App
Temp
°C
Dew
Point
°C
Rel
Hum
%
Delta-T
°C
Wind Press
QNH
hPa
Press
MSL
hPa
Rain since
9am
mm
Dir  Spd
km/h
Gust
km/h
Spd
kts
Gust
kts
23/05:30pm 8.1 1.1 6.2 88 0.9 SW 32 56 17 30 1004.6 1004.6 0.8
23/05:20pm 8.7 1.2 6.2 84 1.1 SW 35 54 19 29 1004.5 1004.5 0.6
23/05:00pm 9.4 2.2 5.9 79 1.6 SW 33 48 18 26 1004.2 1004.2 0.6
23/04:43pm 9.4 1.9 6.1 80 1.5 SW 35 54 19 29 1004.0 1004.0 0.6
23/04:30pm 9.2 0.9 6.3 82 1.3 SW 39 56 21 30 1003.8 1003.8 0.6
23/04:00pm 8.9 0.0 6.9 87 0.9 SW 43 61 23 33 1003.5 1003.5 0.6
23/03:44pm 9.5 1.5 7.3 86 1.0 SW 39 57 21 31 1003.2 1003.2 0.6
23/03:30pm 10.3 1.8 7.0 80 1.6 SW 41 56 22 30 1003.0 1003.0 0.6
23/03:20pm 10.2 1.7 7.1 81 1.5 SW 41 59 22 32 1002.9 1002.9 0.6
23/03:00pm 10.1 1.1 7.2 82 1.4 SW 44 61 24 33 1002.7 1002.7 0.6
23/02:31pm 10.9 3.8 8.1 83 1.4 SW 35 56 19 30 1002.4 1002.4 0.6
23/02:30pm 11.2 4.3 8.8 85 1.2 SW 35 50 19 27 1002.4 1002.4 0.6
23/02:00pm 10.3 1.1 7.9 85 1.2 SW 46 65 25 35 1001.7 1001.8 0.6
23/01:35pm 10.8 2.1 7.9 82 1.4 SW 43 65 23 35 1001.2 1001.3 0.6
23/01:30pm 11.2 3.1 8.6 84 1.3 SW 41 56 22 30 1001.1 1001.2 0.6
23/01:26pm 10.7 2.1 8.1 84 1.3 SW 43 61 23 33 1001.1 1001.2 0.6
23/01:00pm 10.5 1.0 8.4 87 1.0 SW 48 63 26 34 1000.8 1000.9 0.6
23/12:43pm 10.4 2.0 9.0 91 0.7 SW 43 61 23 33 1000.5 1000.6 0.6
23/12:30pm 9.7 0.5 8.1 90 0.8 SW 46 59 25 32 1000.4 1000.5 0.6
23/12:00pm 10.9 3.4 8.1 83 1.4 SW 37 56 20 30 1000.0 1000.1 0.4
23/11:41am 11.5 2.9 8.2 80 1.6 SW 43 61 23 33 999.7 999.8 0.4
23/11:30am 11.3 2.4 7.8 79 1.7 WSW 44 57 24 31 999.3 999.4 0.4
23/11:00am 10.7 0.7 7.9 83 1.4 WSW 50 65 27 35 999.0 999.1 0.4
23/10:30am 10.8 1.4 8.7 87 1.0 WSW 48 65 26 35 998.7 998.8 0.4
23/10:16am 10.7 1.8 9.3 91 0.7 WSW 46 65 25 35 998.6 998.7 0.4
23/10:00am 10.2 1.1 8.5 89 0.8 WSW 46 59 25 32 998.5 998.6 0.2
23/09:30am 11.6 2.8 8.1 79 1.7 WSW 44 57 24 31 998.0 998.1 0.0
23/09:00am 10.2 0.8 7.3 82 1.4 WSW 46 61 25 33 997.5 997.6 5.2
23/08:30am 10.5 0.6 8.3 86 1.1 WSW 50 61 27 33 997.1 997.2 5.2
23/08:00am 9.9 -0.4 8.2 89 0.8 WSW 52 69 28 37 996.5 996.6 5.2
23/07:57am 10.0 -0.6 8.4 90 0.8 WSW 54 69 29 37 996.5 996.6 5.2
23/07:36am 9.5 1.7 8.1 91 0.7 WSW 39 57 21 31 996.2 996.2 5.2
23/07:30am 8.9 0.1 7.4 90 0.7 WSW 43 56 23 30 996.1 996.1 5.2
23/07:03am 9.3 0.4 7.7 90 0.8 WSW 44 63 24 34 995.7 995.7 4.8
23/07:00am 9.4 0.2 7.8 90 0.8 WSW 46 63 25 34 995.7 995.7 4.8
23/06:30am 9.2 -0.4 8.0 92 0.6 W 48 61 26 33 995.2 995.2 4.2
23/06:00am 9.2 0.3 7.6 90 0.8 W 44 57 24 31 994.5 994.5 3.8
23/05:34am 9.2 -0.1 7.6 90 0.8 W 46 65 25 35 994.2 994.2 3.8
23/05:30am 9.2 -0.5 7.5 89 0.8 W 48 65 26 35 994.2 994.2 3.8
23/05:00am 9.1 1.5 7.5 90 0.8 W 37 50 20 27 993.8 993.8 3.8
23/04:30am 8.6 3.7 7.1 90 0.7 WNW 22 32 12 17 993.7 993.7 3.6
23/04:00am 8.6 3.4 7.2 91 0.7 WNW 24 32 13 17 993.6 993.6 3.4
23/03:30am 8.8 2.7 6.4 85 1.1 WNW 28 41 15 22 993.4 993.4 2.8
23/03:00am 9.0 2.8 6.3 83 1.3 WNW 28 41 15 22 993.2 993.2 2.0
23/02:30am 8.9 3.5 6.2 83 1.2 NW 24 35 13 19 993.1 993.1 1.6
23/02:00am 9.6 4.8 5.4 75 1.9 NW 20 24 11 13 993.3 993.3 1.4
23/01:30am 9.3 3.7 5.5 77 1.7 NW 24 39 13 21 993.6 993.6 1.4
23/01:00am 8.8 4.0 5.5 80 1.5 NNW 20 26 11 14 993.6 993.6 1.2
23/12:30am 9.1 4.4 5.3 77 1.7 NNW 19 26 10 14 993.9 993.9 1.2
23/12:00am 9.7 3.3 5.1 73 2.1 NW 28 35 15 19 994.0 994.0 1.2
 
Date/Time
EST
Temp
°C
App
Temp
°C
Dew
Point
°C
Rel
Hum
%
Delta-T
°C
Wind Press
QNH
hPa
Press
MSL
hPa
Rain since
9am
mm
Dir  Spd
km/h
Gust
km/h
Spd
kts
Gust
kts
22/11:30pm 9.9 2.7 4.9 71 2.3 WNW 32 46 17 25 994.1 994.1 1.2
22/11:24pm 10.0 3.5 4.8 70 2.3 NW 28 46 15 25 994.1 994.1 1.2
22/11:00pm 9.7 4.9 5.5 75 1.9 NW 20 30 11 16 994.4 994.4 1.2
22/10:30pm 9.5 3.2 5.9 78 1.7 WNW 28 35 15 19 994.4 994.4 1.2
22/10:00pm 10.1 3.1 5.9 75 2.0 WNW 32 44 17 24 994.6 994.6 1.2
22/09:30pm 10.8 5.2 5.3 69 2.5 WNW 24 35 13 19 994.5 994.5 1.2
22/09:00pm 11.2 4.6 4.4 63 3.1 WNW 28 39 15 21 994.4 994.4 1.2
22/08:30pm 11.0 7.3 4.2 63 3.0 NW 13 20 7 11 994.3 994.3 1.2
22/08:00pm 11.4 6.2 3.4 58 3.6 NW 20 30 11 16 994.2 994.2 1.2
22/07:30pm 11.5 5.4 3.0 56 3.7 NW 24 33 13 18 994.2 994.2 1.2
22/07:00pm 11.7 5.5 4.4 61 3.3 NW 26 33 14 18 993.7 993.7 1.2
22/06:30pm 11.5 4.0 4.3 61 3.2 NW 33 44 18 24 993.4 993.4 1.2
22/06:09pm 11.7 5.3 5.1 64 3.0 WNW 28 48 15 26 993.4 993.4 1.2
22/06:00pm 11.5 5.9 5.6 67 2.8 WNW 24 37 13 20 993.5 993.5 1.2
22/05:30pm 12.3 6.4 5.9 65 3.0 NW 26 37 14 20 993.3 993.3 1.2
22/05:00pm 13.3 9.1 7.3 67 3.0 WNW 19 26 10 14 993.2 993.2 1.2
22/04:30pm 13.9 11.9 8.7 71 2.6 W 9 13 5 7 993.1 993.1 1.2
22/04:00pm 13.0 11.7 9.3 78 1.9 E 6 7 3 4 993.1 993.1 1.2
22/03:30pm 12.8 11.4 9.6 81 1.6 SW 7 13 4 7 993.2 993.2 1.2
22/03:00pm 12.7 11.4 9.3 80 1.7 SE 6 7 3 4 993.2 993.2 1.2
22/02:30pm 13.3 11.9 10.8 85 1.3 SW 9 17 5 9 993.0 993.0 1.2
22/02:00pm 11.3 8.4 9.6 89 0.9 SW 15 19 8 10 993.3 993.3 0.6
22/01:30pm 12.3 8.1 8.2 76 2.0 WSW 20 32 11 17 992.8 992.8 0.0
22/01:00pm 15.0 8.8 6.3 56 4.3 NW 28 41 15 22 992.5 992.5 0.0
22/12:30pm 15.2 7.3 6.2 55 4.4 NW 37 48 20 26 992.6 992.6 0.0
22/12:00pm 15.5 8.4 6.2 54 4.6 NW 33 43 18 23 992.9 992.9 0.0
22/11:30am 14.2 7.2 6.1 58 3.9 NW 32 46 17 25 993.0 993.0 0.0
22/11:00am 14.8 10.1 5.9 55 4.3 NW 20 30 11 16 993.2 993.2 0.0
22/10:30am 14.5 10.8 6.3 58 4.0 NNW 15 26 8 14 993.3 993.3 0.0
22/10:00am 14.1 10.8 6.5 60 3.7 NW 13 17 7 9 993.5 993.5 0.0
22/09:30am 13.6 9.2 6.5 62 3.4 NNW 19 24 10 13 993.6 993.6 0.0
22/09:00am 14.0 10.3 6.4 60 3.7 NNW 15 20 8 11 993.7 993.7 0.2
22/08:30am 12.6 8.4 5.8 63 3.2 NNW 17 24 9 13 993.9 993.9 0.2
22/08:00am 11.9 7.0 5.1 63 3.2 NNW 20 30 11 16 993.8 993.8 0.2
22/07:30am 11.6 6.9 5.3 65 2.9 NNW 19 26 10 14 994.0 994.0 0.2
22/07:00am 11.2 7.3 5.5 68 2.7 N 15 26 8 14 994.0 994.0 0.2
22/06:30am 10.6 7.1 5.6 71 2.3 NW 13 24 7 13 994.0 994.0 0.2
22/06:00am 10.8 6.4 4.7 66 2.8 NW 17 28 9 15 994.0 994.0 0.2
22/05:30am 10.3 7.4 6.3 76 1.9 N 11 19 6 10 994.0 994.0 0.2
22/05:00am 10.0 6.7 6.2 77 1.8 N 13 20 7 11 994.2 994.2 0.2
22/04:30am 9.9 6.6 6.3 78 1.7 NNE 13 17 7 9 994.3 994.3 0.2
22/04:00am 10.0 6.3 6.3 78 1.7 NNE 15 20 8 11 994.2 994.2 0.2
22/03:30am 10.4 6.3 6.2 75 2.0 NNE 17 26 9 14 994.4 994.4 0.2
22/03:00am 10.5 6.9 5.1 69 2.5 NNE 13 17 7 9 994.7 994.7 0.2
22/02:30am 10.8 7.1 4.7 66 2.8 NE 13 19 7 10 995.1 995.1 0.2
22/02:00am 10.4 6.3 4.3 66 2.8 NE 15 20 8 11 995.6 995.6 0.2
22/01:30am 10.3 6.6 4.7 68 2.5 NE 13 20 7 11 996.1 996.1 0.2
22/01:00am 10.8 6.5 5.1 68 2.6 NNE 17 22 9 12 996.6 996.7 0.2
22/12:30am 11.3 6.8 4.3 62 3.2 NNE 17 22 9 12 996.6 996.7 0.2
22/12:00am 10.5 6.8 4.6 67 2.7 NNE 13 15 7 8 996.8 996.9 0.2
 
Date/Time
EST
Temp
°C
App
Temp
°C
Dew
Point
°C
Rel
Hum
%
Delta-T
°C
Wind Press
QNH
hPa
Press
MSL
hPa
Rain since
9am
mm
Dir  Spd
km/h
Gust
km/h
Spd
kts
Gust
kts
21/11:30pm 10.1 6.9 5.1 71 2.3 NE 11 15 6 8 997.2 997.3 0.2
21/11:00pm 10.9 7.8 5.4 69 2.6 N 11 13 6 7 997.5 997.6 0.2
21/10:30pm 11.5 7.6 5.4 66 2.8 N 15 22 8 12 997.8 997.9 0.2
21/10:00pm 10.7 7.6 5.5 70 2.4 N 11 17 6 9 997.9 998.0 0.2
21/09:30pm 11.0 8.4 6.2 72 2.2 NE 9 11 5 6 998.0 998.1 0.2
21/09:00pm 11.4 7.5 5.5 67 2.8 NNW 15 17 8 9 998.1 998.2 0.2
21/08:30pm 11.7 8.8 4.4 61 3.3 NW 9 13 5 7 998.2 998.3 0.2
21/08:00pm 11.5 8.6 2.8 55 3.8 N 7 11 4 6 998.2 998.3 0.2
21/07:30pm 13.6 8.5 2.8 48 4.8 NW 19 22 10 12 998.1 998.2 0.2
21/07:00pm 14.0 8.4 3.2 48 4.9 WNW 22 32 12 17 998.1 998.2 0.2
21/06:30pm 14.4 8.3 2.9 46 5.2 WNW 24 35 13 19 997.9 998.0 0.2
21/06:00pm 13.1 10.7 6.9 66 3.0 ESE 9 15 5 8 997.8 997.9 0.2
21/05:30pm 15.7 9.4 3.5 44 5.6 NW 26 39 14 21 997.1 997.2 0.2
21/05:00pm 15.5 9.7 4.6 48 5.2 NW 24 32 13 17 997.2 997.3 0.2
21/04:30pm 16.5 10.9 5.2 47 5.4 WNW 24 32 13 17 997.3 997.4 0.2
21/04:00pm 16.4 11.7 5.1 47 5.4 W 19 24 10 13 997.5 997.6 0.2
21/03:30pm 17.5 12.6 5.1 44 6.0 WNW 20 30 11 16 997.3 997.4 0.2
21/03:00pm 18.4 12.9 3.8 38 6.9 WNW 22 35 12 19 997.2 997.3 0.2
21/02:30pm 16.7 13.1 5.0 46 5.6 W 13 17 7 9 997.3 997.4 0.2
21/02:00pm 17.2 12.2 3.8 41 6.3 WNW 19 28 10 15 997.5 997.6 0.2
21/01:30pm 17.4 10.9 4.7 43 6.1 WNW 28 41 15 22 997.5 997.6 0.2
21/01:00pm 16.6 9.5 3.3 41 6.2 WNW 30 37 16 20 997.6 997.7 0.2
21/12:42pm 17.6 11.0 4.2 41 6.3 WNW 28 46 15 25 997.7 997.8 0.2
21/12:30pm 17.1 8.5 2.7 38 6.6 WNW 37 50 20 27 997.7 997.8 0.2
21/12:18pm 17.7 12.0 5.0 43 6.1 WNW 24 44 13 24 997.9 998.0 0.2
21/12:00pm 18.0 14.1 5.2 43 6.2 WNW 15 24 8 13 998.2 998.3 0.2
21/11:30am 17.7 13.2 6.9 49 5.4 WNW 20 30 11 16 998.1 998.2 0.2
21/11:00am 16.6 14.0 7.8 56 4.5 WNW 11 17 6 9 998.0 998.1 0.2
21/10:30am 15.4 11.6 9.7 69 3.0 WNW 20 28 11 15 998.1 998.2 0.2
21/10:00am 12.4 9.1 9.4 82 1.5 NNW 17 24 9 13 997.8 997.9 0.2
21/09:30am 12.1 9.5 9.5 84 1.3 N 13 19 7 10 998.2 998.3 0.2
21/09:00am 12.8 9.1 9.4 80 1.7 N 19 30 10 16 998.4 998.5 0.4
21/08:30am 13.5 11.5 10.3 81 1.7 NNW 11 15 6 8 998.9 999.0 0.2
21/08:00am 14.4 10.8 10.0 75 2.3 WNW 19 24 10 13 998.7 998.8 0.0
21/07:30am 14.7 11.5 10.1 74 2.4 NW 17 28 9 15 997.9 998.0 0.0
21/07:00am 15.1 13.0 9.9 71 2.7 NNE 11 15 6 8 996.9 997.0 0.0
21/06:30am 14.7 12.2 9.7 72 2.6 NNE 13 17 7 9 997.1 997.2 0.0
21/06:00am 14.8 12.3 9.8 72 2.6 NNE 13 17 7 9 996.9 997.0 0.0
21/05:30am 14.6 11.6 9.4 71 2.7 N 15 19 8 10 997.1 997.2 0.0
21/05:00am 13.4 11.6 9.5 77 2.0 NNE 9 13 5 7 997.1 997.2 0.0
21/04:30am 13.5 10.6 9.7 78 2.0 NNE 15 19 8 10 997.6 997.7 0.0
21/04:00am 13.5 11.0 9.7 78 2.0 NNE 13 17 7 9 998.0 998.1 0.0
21/03:30am 14.0 10.7 9.6 75 2.3 N 17 22 9 12 998.7 998.8 0.0
21/03:00am 13.5 10.2 9.6 77 2.0 N 17 20 9 11 998.8 998.9 0.0
21/02:30am 13.3 9.7 9.9 80 1.8 N 19 22 10 12 999.1 999.2 0.0
21/02:00am 13.3 11.6 9.7 79 1.9 NNE 9 11 5 6 999.6 999.7 0.0
21/01:30am 13.3 11.4 10.5 83 1.5 NNE 11 13 6 7 999.9 1000.0 0.0
21/01:00am 12.4 10.9 10.6 89 0.9 NNE 9 13 5 7 999.8 999.9 0.0
21/12:30am 11.9 9.7 10.8 93 0.6 E 13 20 7 11 1000.0 1000.1 0.0
21/12:00am 11.9 10.4 10.5 91 0.7 E 9 13 5 7 1000.6 1000.7 0.0
 
Date/Time
EST
Temp
°C
App
Temp
°C
Dew
Point
°C
Rel
Hum
%
Delta-T
°C
Wind Press
QNH
hPa
Press
MSL
hPa
Rain since
9am
mm
Dir  Spd
km/h
Gust
km/h
Spd
kts
Gust
kts
20/11:30pm 12.6 12.9 11.0 90 0.8 CALM 0 0 0 0 1000.9 1001.0 0.0
20/11:00pm 12.9 12.6 11.5 91 0.7 E 4 9 2 5 1000.8 1000.9 0.0
20/10:30pm 12.9 11.7 11.6 92 0.7 ENE 9 11 5 6 1000.8 1000.9 0.0
20/10:00pm 12.8 11.6 11.7 93 0.6 E 9 11 5 6 1000.7 1000.8 0.0
20/09:30pm 12.4 10.7 11.1 92 0.7 E 11 15 6 8 1000.7 1000.8 0.0
20/09:00pm 12.1 10.2 10.5 90 0.8 E 11 13 6 7 1000.7 1000.8 0.0
20/08:30pm 12.7 11.0 11.1 90 0.8 E 11 13 6 7 1000.7 1000.8 0.0
20/08:00pm 13.6 12.3 11.1 85 1.3 E 9 19 5 10 1000.4 1000.5 0.0
20/07:30pm 14.5 11.7 11.3 81 1.7 SW 17 24 9 13 1000.5 1000.6 0.0
20/07:00pm 17.1 15.8 11.2 68 3.2 NNW 9 20 5 11 999.9 1000.0 0.0
20/06:30pm 17.6 15.9 11.2 66 3.5 N 11 17 6 9 999.5 999.6 0.0
20/06:00pm 18.1 15.3 11.4 65 3.7 NNE 17 24 9 13 999.4 999.5 0.0

Latest Capital City Observations: Canberra | Sydney | Melbourne | Brisbane | Adelaide | Perth | Hobart | Darwin

Other formats

Comma delimited format used in spreadsheet applications
http://www.bom.gov.au/fwo/IDT60901/IDT60901.95967.axf

JavaScript Object Notation format (JSON) in row-major order
http://www.bom.gov.au/fwo/IDT60901/IDT60901.95967.json

Data quality

Most of these data are generated automatically and are frequently updated. Quality checks on data are not normally performed. It is possible for incorrect values to appear. Refer to information at About Latest Weather Observations and please check the disclaimer before using these data.